SBOSBO CAG / LIEE
Speedbird OnlineSpeedbird Online CAG / LIEE

Cagliari Elmas Airport
09:42 28.7°C

Location Cagliari, Italy
Latitude: 39.251499
Longitude: 9.05428
Local Time 09:42 on 18 Jul 2024
UTC +2 hours (Europe/Rome)
Currency £1 equals EUR 1.19
METAR LIEE 180650Z 36003KT 320V040 CAVOK 26/18 Q1017
TAF TAF LIEE 180500Z 1806/1906 35007KT CAVOK BECMG 1808/1810 17013KT BECMG 1819/1821 35007KT
Weather As Of 18 Jul 2024 09:42
Description Clear sky
Wind 4 km/h from North (0°)
Cloud Cover 0%
Precipitation Rain: none, Snow: none
Sunrise 06:12
Sunset 20:47
NOTAM 30 active NOTAM
Rotations During the last 90 days there were
47 flights from LGW
47 flights to LGW
Web Airport Website | Wikipedia
Codes IATA: CAG
ICAO: LIEE
Altitude 4 Meter / 13 Feet
Distance 1,529 KM / 950 Miles
from London.
Runways
RunwayLength (m)Surface
142803Asphalt
322803Asphalt
Radio
TypeDescriptionFrequency
APPCAGLIARI APP118.75
GNDElmas GND125.425
MISCSAR123.1
TWRTWR120.6
Live ATC



Support Speedbird Online

© 2017-2024 Speedbird Online